Terminal Aerodrome Forecast
Issued by NWS

Home | Current Version | Previous Version | Text Only | Print | Product List | Glossary On
Versions: 1 2 3 4 5 6 7 8 9 10 11 12 13 14 15 16 17 18 19 20 21 22 23 24 25
000
FTUS43 KAPX 281120
TAFPLN
TAF
KPLN 281120Z 2812/2912 00000KT P6SM SKC
     FM281500 10008KT P6SM SCT050
     FM281900 09008KT P6SM VCSH SCT050
     FM290200 14003KT P6SM SCT150
     FM290600 00000KT P6SM SKC WS020/18025KT=

USA.gov is the U.S. government's official web portal to all federal, state and local government web resources and services.